sensor_id;sensor_type;location;lat;lon;timestamp;P1;durP1;ratioP1;P2;durP2;ratioP2
3280;SDS011;1652;51.318;6.202;2023-03-03T00:00:56;84.87;;;30.27;;
3280;SDS011;1652;51.318;6.202;2023-03-03T00:03:23;80.90;;;31.20;;
3280;SDS011;1652;51.318;6.202;2023-03-03T00:05:52;91.90;;;33.37;;
3280;SDS011;1652;51.318;6.202;2023-03-03T00:08:20;96.60;;;37.17;;
3280;SDS011;1652;51.318;6.202;2023-03-03T00:10:48;73.30;;;29.60;;
3280;SDS011;1652;51.318;6.202;2023-03-03T00:13:25;99.27;;;37.23;;
3280;SDS011;1652;51.318;6.202;2023-03-03T00:15:53;83.77;;;25.27;;
3280;SDS011;1652;51.318;6.202;2023-03-03T00:18:35;116.93;;;37.53;;
3280;SDS011;1652;51.318;6.202;2023-03-03T00:21:13;124.63;;;38.77;;
3280;SDS011;1652;51.318;6.202;2023-03-03T00:23:49;126.00;;;40.50;;
3280;SDS011;1652;51.318;6.202;2023-03-03T00:26:29;113.97;;;40.30;;
3280;SDS011;1652;51.318;6.202;2023-03-03T00:29:01;95.57;;;32.80;;
3280;SDS011;1652;51.318;6.202;2023-03-03T00:31:45;103.87;;;35.40;;
3280;SDS011;1652;51.318;6.202;2023-03-03T00:36:45;107.20;;;35.70;;
3280;SDS011;1652;51.318;6.202;2023-03-03T00:41:44;95.87;;;35.90;;
3280;SDS011;1652;51.318;6.202;2023-03-03T00:47:45;105.77;;;34.37;;
3280;SDS011;1652;51.318;6.202;2023-03-03T00:49:55;85.47;;;31.50;;
3280;SDS011;1652;51.318;6.202;2023-03-03T00:52:38;94.00;;;32.27;;
3280;SDS011;1652;51.318;6.202;2023-03-03T00:55:10;92.60;;;30.20;;
3280;SDS011;1652;51.318;6.202;2023-03-03T00:57:37;88.27;;;31.20;;
3280;SDS011;1652;51.318;6.202;2023-03-03T01:00:04;80.80;;;28.27;;
3280;SDS011;1652;51.318;6.202;2023-03-03T01:02:31;79.13;;;30.47;;
3280;SDS011;1652;51.318;6.202;2023-03-03T01:04:58;62.23;;;22.70;;
3280;SDS011;1652;51.318;6.202;2023-03-03T01:07:24;79.80;;;28.23;;
3280;SDS011;1652;51.318;6.202;2023-03-03T01:09:54;55.83;;;22.27;;
3280;SDS011;1652;51.318;6.202;2023-03-03T01:12:22;77.13;;;29.90;;
3280;SDS011;1652;51.318;6.202;2023-03-03T01:14:49;73.43;;;28.67;;
3280;SDS011;1652;51.318;6.202;2023-03-03T01:17:18;76.87;;;28.07;;
3280;SDS011;1652;51.318;6.202;2023-03-03T01:19:45;71.23;;;25.67;;
3280;SDS011;1652;51.318;6.202;2023-03-03T01:22:12;70.57;;;25.20;;
3280;SDS011;1652;51.318;6.202;2023-03-03T01:24:39;74.43;;;28.00;;
3280;SDS011;1652;51.318;6.202;2023-03-03T01:27:06;65.83;;;25.70;;
3280;SDS011;1652;51.318;6.202;2023-03-03T01:29:33;57.07;;;24.57;;
3280;SDS011;1652;51.318;6.202;2023-03-03T01:31:59;72.80;;;27.53;;
3280;SDS011;1652;51.318;6.202;2023-03-03T01:34:26;72.67;;;27.50;;
3280;SDS011;1652;51.318;6.202;2023-03-03T01:36:53;69.17;;;26.43;;
3280;SDS011;1652;51.318;6.202;2023-03-03T01:39:20;65.00;;;24.87;;
3280;SDS011;1652;51.318;6.202;2023-03-03T01:41:47;75.87;;;27.93;;
3280;SDS011;1652;51.318;6.202;2023-03-03T01:44:14;57.30;;;21.73;;
3280;SDS011;1652;51.318;6.202;2023-03-03T01:46:45;51.50;;;21.90;;
3280;SDS011;1652;51.318;6.202;2023-03-03T01:49:21;64.40;;;25.63;;
3280;SDS011;1652;51.318;6.202;2023-03-03T01:52:00;52.10;;;21.40;;
3280;SDS011;1652;51.318;6.202;2023-03-03T01:54:35;59.40;;;25.00;;
3280;SDS011;1652;51.318;6.202;2023-03-03T01:57:09;54.83;;;23.43;;
3280;SDS011;1652;51.318;6.202;2023-03-03T01:59:43;53.57;;;22.73;;
3280;SDS011;1652;51.318;6.202;2023-03-03T02:02:14;58.83;;;23.83;;
3280;SDS011;1652;51.318;6.202;2023-03-03T02:04:42;37.50;;;17.50;;
3280;SDS011;1652;51.318;6.202;2023-03-03T02:07:09;59.53;;;25.57;;
3280;SDS011;1652;51.318;6.202;2023-03-03T02:09:51;69.10;;;25.60;;
3280;SDS011;1652;51.318;6.202;2023-03-03T02:12:21;50.43;;;21.40;;
3280;SDS011;1652;51.318;6.202;2023-03-03T02:14:55;56.00;;;23.13;;
3280;SDS011;1652;51.318;6.202;2023-03-03T02:17:22;46.73;;;18.80;;
3280;SDS011;1652;51.318;6.202;2023-03-03T02:22:52;49.00;;;20.40;;
3280;SDS011;1652;51.318;6.202;2023-03-03T02:28:28;49.27;;;20.33;;
3280;SDS011;1652;51.318;6.202;2023-03-03T02:30:57;59.63;;;23.90;;
3280;SDS011;1652;51.318;6.202;2023-03-03T02:33:28;54.37;;;23.77;;
3280;SDS011;1652;51.318;6.202;2023-03-03T02:35:55;50.57;;;22.83;;
3280;SDS011;1652;51.318;6.202;2023-03-03T02:38:35;56.60;;;22.07;;
3280;SDS011;1652;51.318;6.202;2023-03-03T02:46:34;50.30;;;21.60;;
3280;SDS011;1652;51.318;6.202;2023-03-03T02:49:02;53.77;;;21.93;;
3280;SDS011;1652;51.318;6.202;2023-03-03T02:51:30;48.93;;;21.57;;
3280;SDS011;1652;51.318;6.202;2023-03-03T02:53:58;56.27;;;23.43;;
3280;SDS011;1652;51.318;6.202;2023-03-03T02:56:24;53.27;;;22.30;;
3280;SDS011;1652;51.318;6.202;2023-03-03T02:58:51;63.87;;;24.57;;
3280;SDS011;1652;51.318;6.202;2023-03-03T03:01:18;48.33;;;22.30;;
3280;SDS011;1652;51.318;6.202;2023-03-03T03:03:46;64.90;;;26.63;;
3280;SDS011;1652;51.318;6.202;2023-03-03T03:06:12;58.10;;;25.50;;
3280;SDS011;1652;51.318;6.202;2023-03-03T03:08:40;63.70;;;23.80;;
3280;SDS011;1652;51.318;6.202;2023-03-03T03:11:07;55.33;;;23.47;;
3280;SDS011;1652;51.318;6.202;2023-03-03T03:13:34;45.10;;;19.63;;
3280;SDS011;1652;51.318;6.202;2023-03-03T03:16:01;27.73;;;13.90;;
3280;SDS011;1652;51.318;6.202;2023-03-03T03:18:28;48.97;;;19.70;;
3280;SDS011;1652;51.318;6.202;2023-03-03T03:20:55;49.03;;;19.93;;
3280;SDS011;1652;51.318;6.202;2023-03-03T03:23:21;44.77;;;19.53;;
3280;SDS011;1652;51.318;6.202;2023-03-03T03:25:48;42.80;;;20.30;;
3280;SDS011;1652;51.318;6.202;2023-03-03T03:28:15;54.40;;;23.23;;
3280;SDS011;1652;51.318;6.202;2023-03-03T03:30:43;50.47;;;21.37;;
3280;SDS011;1652;51.318;6.202;2023-03-03T03:33:11;50.77;;;20.73;;
3280;SDS011;1652;51.318;6.202;2023-03-03T03:35:38;55.97;;;21.73;;
3280;SDS011;1652;51.318;6.202;2023-03-03T03:38:10;49.37;;;20.80;;
3280;SDS011;1652;51.318;6.202;2023-03-03T03:40:38;50.30;;;20.30;;
3280;SDS011;1652;51.318;6.202;2023-03-03T03:43:05;45.43;;;20.33;;
3280;SDS011;1652;51.318;6.202;2023-03-03T03:45:32;48.70;;;18.57;;
3280;SDS011;1652;51.318;6.202;2023-03-03T03:47:59;55.30;;;20.90;;
3280;SDS011;1652;51.318;6.202;2023-03-03T03:50:26;49.67;;;18.37;;
3280;SDS011;1652;51.318;6.202;2023-03-03T03:52:53;51.27;;;19.77;;
3280;SDS011;1652;51.318;6.202;2023-03-03T03:55:21;52.33;;;19.30;;
3280;SDS011;1652;51.318;6.202;2023-03-03T03:57:48;43.67;;;17.17;;
3280;SDS011;1652;51.318;6.202;2023-03-03T04:00:15;48.47;;;19.20;;
3280;SDS011;1652;51.318;6.202;2023-03-03T04:02:42;59.03;;;20.13;;
3280;SDS011;1652;51.318;6.202;2023-03-03T04:05:09;49.47;;;19.07;;
3280;SDS011;1652;51.318;6.202;2023-03-03T04:07:36;51.77;;;20.00;;
3280;SDS011;1652;51.318;6.202;2023-03-03T04:10:03;51.37;;;19.90;;
3280;SDS011;1652;51.318;6.202;2023-03-03T04:12:30;48.57;;;18.43;;
3280;SDS011;1652;51.318;6.202;2023-03-03T04:15:04;51.67;;;21.07;;
3280;SDS011;1652;51.318;6.202;2023-03-03T04:17:33;55.73;;;19.93;;
3280;SDS011;1652;51.318;6.202;2023-03-03T04:19:59;53.53;;;19.80;;
3280;SDS011;1652;51.318;6.202;2023-03-03T04:22:27;63.07;;;21.20;;
3280;SDS011;1652;51.318;6.202;2023-03-03T04:24:59;67.80;;;21.97;;
3280;SDS011;1652;51.318;6.202;2023-03-03T04:27:30;59.77;;;21.93;;
3280;SDS011;1652;51.318;6.202;2023-03-03T04:29:58;60.10;;;21.13;;
3280;SDS011;1652;51.318;6.202;2023-03-03T04:32:25;65.40;;;21.97;;
3280;SDS011;1652;51.318;6.202;2023-03-03T04:34:52;64.97;;;23.00;;
3280;SDS011;1652;51.318;6.202;2023-03-03T04:37:32;64.20;;;21.53;;
3280;SDS011;1652;51.318;6.202;2023-03-03T04:39:59;55.43;;;22.60;;
3280;SDS011;1652;51.318;6.202;2023-03-03T04:42:26;67.33;;;23.27;;
3280;SDS011;1652;51.318;6.202;2023-03-03T04:44:54;56.00;;;22.90;;
3280;SDS011;1652;51.318;6.202;2023-03-03T04:47:20;61.80;;;23.27;;
3280;SDS011;1652;51.318;6.202;2023-03-03T04:49:47;70.93;;;24.43;;
3280;SDS011;1652;51.318;6.202;2023-03-03T04:52:14;54.37;;;20.17;;
3280;SDS011;1652;51.318;6.202;2023-03-03T04:54:41;60.90;;;19.97;;
3280;SDS011;1652;51.318;6.202;2023-03-03T04:57:08;63.50;;;21.00;;
3280;SDS011;1652;51.318;6.202;2023-03-03T04:59:35;58.27;;;22.57;;
3280;SDS011;1652;51.318;6.202;2023-03-03T05:02:02;63.80;;;22.30;;
3280;SDS011;1652;51.318;6.202;2023-03-03T05:04:30;59.87;;;21.10;;
3280;SDS011;1652;51.318;6.202;2023-03-03T05:06:58;52.03;;;20.07;;
3280;SDS011;1652;51.318;6.202;2023-03-03T05:09:25;64.27;;;22.40;;
3280;SDS011;1652;51.318;6.202;2023-03-03T05:11:53;63.80;;;21.47;;
3280;SDS011;1652;51.318;6.202;2023-03-03T05:14:19;61.27;;;19.37;;
3280;SDS011;1652;51.318;6.202;2023-03-03T05:16:46;60.63;;;20.77;;
3280;SDS011;1652;51.318;6.202;2023-03-03T05:19:13;49.47;;;17.40;;
3280;SDS011;1652;51.318;6.202;2023-03-03T05:21:40;66.23;;;22.20;;
3280;SDS011;1652;51.318;6.202;2023-03-03T05:24:08;71.53;;;21.20;;
3280;SDS011;1652;51.318;6.202;2023-03-03T05:26:36;72.73;;;21.43;;
3280;SDS011;1652;51.318;6.202;2023-03-03T05:29:03;65.33;;;21.37;;
3280;SDS011;1652;51.318;6.202;2023-03-03T05:31:31;70.43;;;22.80;;
3280;SDS011;1652;51.318;6.202;2023-03-03T05:33:58;60.90;;;21.13;;
3280;SDS011;1652;51.318;6.202;2023-03-03T05:36:25;56.10;;;20.70;;
3280;SDS011;1652;51.318;6.202;2023-03-03T05:38:52;65.63;;;20.73;;
3280;SDS011;1652;51.318;6.202;2023-03-03T05:41:19;66.13;;;20.00;;
3280;SDS011;1652;51.318;6.202;2023-03-03T05:43:46;75.77;;;23.43;;
3280;SDS011;1652;51.318;6.202;2023-03-03T05:46:13;62.43;;;21.90;;
3280;SDS011;1652;51.318;6.202;2023-03-03T05:48:40;64.90;;;20.97;;
3280;SDS011;1652;51.318;6.202;2023-03-03T05:51:07;70.80;;;22.67;;
3280;SDS011;1652;51.318;6.202;2023-03-03T05:53:34;77.27;;;25.07;;
3280;SDS011;1652;51.318;6.202;2023-03-03T05:56:01;66.33;;;22.37;;
3280;SDS011;1652;51.318;6.202;2023-03-03T05:58:28;69.30;;;22.57;;
3280;SDS011;1652;51.318;6.202;2023-03-03T06:00:55;68.23;;;22.10;;
3280;SDS011;1652;51.318;6.202;2023-03-03T06:03:22;69.30;;;22.27;;
3280;SDS011;1652;51.318;6.202;2023-03-03T06:05:49;69.60;;;20.80;;
3280;SDS011;1652;51.318;6.202;2023-03-03T06:08:15;83.53;;;25.00;;
3280;SDS011;1652;51.318;6.202;2023-03-03T06:10:42;68.40;;;21.83;;
3280;SDS011;1652;51.318;6.202;2023-03-03T06:13:09;81.83;;;24.27;;
3280;SDS011;1652;51.318;6.202;2023-03-03T06:15:36;77.73;;;26.10;;
3280;SDS011;1652;51.318;6.202;2023-03-03T06:18:04;70.37;;;22.20;;
3280;SDS011;1652;51.318;6.202;2023-03-03T06:20:31;94.23;;;24.80;;
3280;SDS011;1652;51.318;6.202;2023-03-03T06:22:58;84.37;;;23.40;;
3280;SDS011;1652;51.318;6.202;2023-03-03T06:25:25;83.03;;;26.70;;
3280;SDS011;1652;51.318;6.202;2023-03-03T06:27:53;81.80;;;23.87;;
3280;SDS011;1652;51.318;6.202;2023-03-03T06:30:20;61.90;;;18.97;;
3280;SDS011;1652;51.318;6.202;2023-03-03T06:32:47;70.80;;;20.50;;
3280;SDS011;1652;51.318;6.202;2023-03-03T06:35:13;75.00;;;23.27;;
3280;SDS011;1652;51.318;6.202;2023-03-03T06:37:40;80.83;;;22.00;;
3280;SDS011;1652;51.318;6.202;2023-03-03T06:40:07;76.53;;;22.03;;
3280;SDS011;1652;51.318;6.202;2023-03-03T06:42:35;72.33;;;23.37;;
3280;SDS011;1652;51.318;6.202;2023-03-03T06:45:02;62.10;;;21.70;;
3280;SDS011;1652;51.318;6.202;2023-03-03T06:47:28;71.73;;;22.50;;
3280;SDS011;1652;51.318;6.202;2023-03-03T06:49:56;71.47;;;23.53;;
3280;SDS011;1652;51.318;6.202;2023-03-03T06:52:24;66.03;;;22.40;;
3280;SDS011;1652;51.318;6.202;2023-03-03T06:54:56;77.57;;;21.13;;
3280;SDS011;1652;51.318;6.202;2023-03-03T06:57:26;62.90;;;20.40;;
3280;SDS011;1652;51.318;6.202;2023-03-03T07:00:09;51.03;;;20.47;;
3280;SDS011;1652;51.318;6.202;2023-03-03T07:02:41;67.30;;;22.27;;
3280;SDS011;1652;51.318;6.202;2023-03-03T07:05:10;57.83;;;19.50;;
3280;SDS011;1652;51.318;6.202;2023-03-03T07:07:40;49.80;;;17.47;;
3280;SDS011;1652;51.318;6.202;2023-03-03T07:10:19;58.83;;;21.17;;
3280;SDS011;1652;51.318;6.202;2023-03-03T07:12:52;55.17;;;20.00;;
3280;SDS011;1652;51.318;6.202;2023-03-03T07:17:52;53.30;;;20.27;;
3280;SDS011;1652;51.318;6.202;2023-03-03T07:20:58;46.67;;;19.10;;
3280;SDS011;1652;51.318;6.202;2023-03-03T07:23:20;64.43;;;21.93;;
3280;SDS011;1652;51.318;6.202;2023-03-03T07:26:11;60.33;;;19.80;;
3280;SDS011;1652;51.318;6.202;2023-03-03T07:28:40;61.50;;;21.23;;
3280;SDS011;1652;51.318;6.202;2023-03-03T07:34:00;46.43;;;19.03;;
3280;SDS011;1652;51.318;6.202;2023-03-03T07:36:34;50.10;;;20.63;;
3280;SDS011;1652;51.318;6.202;2023-03-03T07:39:03;50.70;;;20.93;;
3280;SDS011;1652;51.318;6.202;2023-03-03T07:41:43;43.10;;;17.53;;
3280;SDS011;1652;51.318;6.202;2023-03-03T07:44:25;53.10;;;19.87;;
3280;SDS011;1652;51.318;6.202;2023-03-03T07:47:10;53.60;;;19.50;;
3280;SDS011;1652;51.318;6.202;2023-03-03T07:49:49;34.40;;;14.70;;
3280;SDS011;1652;51.318;6.202;2023-03-03T07:54:55;60.37;;;22.10;;
3280;SDS011;1652;51.318;6.202;2023-03-03T07:59:54;43.73;;;17.80;;
3280;SDS011;1652;51.318;6.202;2023-03-03T08:05:23;48.17;;;20.27;;
3280;SDS011;1652;51.318;6.202;2023-03-03T08:11:02;36.17;;;15.63;;
3280;SDS011;1652;51.318;6.202;2023-03-03T08:16:17;45.40;;;18.77;;
3280;SDS011;1652;51.318;6.202;2023-03-03T08:18:51;43.10;;;18.60;;
3280;SDS011;1652;51.318;6.202;2023-03-03T08:21:25;48.53;;;19.10;;
3280;SDS011;1652;51.318;6.202;2023-03-03T08:23:52;45.10;;;18.00;;
3280;SDS011;1652;51.318;6.202;2023-03-03T08:26:19;49.07;;;20.40;;
3280;SDS011;1652;51.318;6.202;2023-03-03T08:28:47;49.10;;;17.57;;
3280;SDS011;1652;51.318;6.202;2023-03-03T08:31:15;35.80;;;17.00;;
3280;SDS011;1652;51.318;6.202;2023-03-03T08:34:05;28.33;;;11.73;;
3280;SDS011;1652;51.318;6.202;2023-03-03T08:36:32;34.17;;;15.47;;
3280;SDS011;1652;51.318;6.202;2023-03-03T08:39:00;40.17;;;15.83;;
3280;SDS011;1652;51.318;6.202;2023-03-03T08:41:27;41.03;;;17.67;;
3280;SDS011;1652;51.318;6.202;2023-03-03T08:43:54;33.27;;;17.27;;
3280;SDS011;1652;51.318;6.202;2023-03-03T08:46:21;29.73;;;13.83;;
3280;SDS011;1652;51.318;6.202;2023-03-03T08:48:48;45.67;;;16.93;;
3280;SDS011;1652;51.318;6.202;2023-03-03T08:51:15;35.20;;;15.90;;
3280;SDS011;1652;51.318;6.202;2023-03-03T08:53:42;38.33;;;15.50;;
3280;SDS011;1652;51.318;6.202;2023-03-03T08:56:08;33.23;;;14.20;;
3280;SDS011;1652;51.318;6.202;2023-03-03T08:58:35;33.00;;;14.87;;
3280;SDS011;1652;51.318;6.202;2023-03-03T09:01:02;33.13;;;16.13;;
3280;SDS011;1652;51.318;6.202;2023-03-03T09:03:30;35.93;;;14.90;;
3280;SDS011;1652;51.318;6.202;2023-03-03T09:05:57;38.30;;;17.23;;
3280;SDS011;1652;51.318;6.202;2023-03-03T09:08:23;31.67;;;15.17;;
3280;SDS011;1652;51.318;6.202;2023-03-03T09:10:50;35.67;;;15.80;;
3280;SDS011;1652;51.318;6.202;2023-03-03T09:13:17;33.93;;;14.40;;
3280;SDS011;1652;51.318;6.202;2023-03-03T09:15:46;33.63;;;16.83;;
3280;SDS011;1652;51.318;6.202;2023-03-03T09:18:15;37.27;;;15.37;;
3280;SDS011;1652;51.318;6.202;2023-03-03T09:20:45;32.33;;;15.73;;
3280;SDS011;1652;51.318;6.202;2023-03-03T09:31:50;33.87;;;16.13;;
3280;SDS011;1652;51.318;6.202;2023-03-03T09:34:23;33.33;;;13.70;;
3280;SDS011;1652;51.318;6.202;2023-03-03T09:39:59;24.40;;;12.40;;
3280;SDS011;1652;51.318;6.202;2023-03-03T09:48:41;33.80;;;12.57;;
3280;SDS011;1652;51.318;6.202;2023-03-03T09:56:29;32.37;;;14.40;;
3280;SDS011;1652;51.318;6.202;2023-03-03T10:04:30;31.37;;;13.83;;
3280;SDS011;1652;51.318;6.202;2023-03-03T10:15:34;30.00;;;12.27;;
3280;SDS011;1652;51.318;6.202;2023-03-03T10:21:03;33.17;;;13.37;;
3280;SDS011;1652;51.318;6.202;2023-03-03T10:23:53;28.80;;;12.50;;
3280;SDS011;1652;51.318;6.202;2023-03-03T10:29:35;27.50;;;12.43;;
3280;SDS011;1652;51.318;6.202;2023-03-03T10:32:33;30.53;;;12.80;;
3280;SDS011;1652;51.318;6.202;2023-03-03T10:38:05;23.80;;;12.40;;
3280;SDS011;1652;51.318;6.202;2023-03-03T10:40:50;27.60;;;12.27;;
3280;SDS011;1652;51.318;6.202;2023-03-03T10:43:27;25.27;;;11.80;;
3280;SDS011;1652;51.318;6.202;2023-03-03T10:46:25;24.37;;;11.37;;
3280;SDS011;1652;51.318;6.202;2023-03-03T10:51:57;30.50;;;12.93;;
3280;SDS011;1652;51.318;6.202;2023-03-03T10:54:55;28.30;;;11.60;;
3280;SDS011;1652;51.318;6.202;2023-03-03T10:57:48;26.77;;;10.87;;
3280;SDS011;1652;51.318;6.202;2023-03-03T11:06:34;22.20;;;11.37;;
3280;SDS011;1652;51.318;6.202;2023-03-03T11:08:42;26.63;;;11.90;;
3280;SDS011;1652;51.318;6.202;2023-03-03T11:14:27;20.60;;;11.10;;
3280;SDS011;1652;51.318;6.202;2023-03-03T11:17:14;25.57;;;10.70;;
3280;SDS011;1652;51.318;6.202;2023-03-03T11:28:25;27.57;;;12.53;;
3280;SDS011;1652;51.318;6.202;2023-03-03T11:31:04;27.83;;;11.23;;
3280;SDS011;1652;51.318;6.202;2023-03-03T11:33:42;32.50;;;12.20;;
3280;SDS011;1652;51.318;6.202;2023-03-03T11:36:22;31.00;;;13.17;;
3280;SDS011;1652;51.318;6.202;2023-03-03T11:41:29;30.00;;;11.77;;
3280;SDS011;1652;51.318;6.202;2023-03-03T11:44:05;22.33;;;11.27;;
3280;SDS011;1652;51.318;6.202;2023-03-03T11:47:00;26.83;;;10.67;;
3280;SDS011;1652;51.318;6.202;2023-03-03T11:52:18;19.80;;;10.07;;
3280;SDS011;1652;51.318;6.202;2023-03-03T12:06:12;29.63;;;11.20;;
3280;SDS011;1652;51.318;6.202;2023-03-03T12:11:54;23.67;;;11.20;;
3280;SDS011;1652;51.318;6.202;2023-03-03T12:19:58;22.33;;;11.17;;
3280;SDS011;1652;51.318;6.202;2023-03-03T12:39:03;17.97;;;10.00;;
3280;SDS011;1652;51.318;6.202;2023-03-03T12:45:31;17.53;;;10.20;;
3280;SDS011;1652;51.318;6.202;2023-03-03T12:48:58;19.47;;;9.90;;
3280;SDS011;1652;51.318;6.202;2023-03-03T12:55:20;19.00;;;10.00;;
3280;SDS011;1652;51.318;6.202;2023-03-03T13:06:28;26.07;;;12.10;;
3280;SDS011;1652;51.318;6.202;2023-03-03T13:17:14;20.50;;;10.43;;
3280;SDS011;1652;51.318;6.202;2023-03-03T13:23:21;20.80;;;10.40;;
3280;SDS011;1652;51.318;6.202;2023-03-03T13:26:36;19.67;;;10.90;;
3280;SDS011;1652;51.318;6.202;2023-03-03T13:29:21;25.03;;;11.87;;
3280;SDS011;1652;51.318;6.202;2023-03-03T13:31:55;26.20;;;11.00;;
3280;SDS011;1652;51.318;6.202;2023-03-03T13:34:37;21.83;;;9.87;;
3280;SDS011;1652;51.318;6.202;2023-03-03T13:37:26;28.57;;;12.13;;
3280;SDS011;1652;51.318;6.202;2023-03-03T13:42:40;22.60;;;10.90;;
3280;SDS011;1652;51.318;6.202;2023-03-03T13:50:59;20.87;;;9.93;;
3280;SDS011;1652;51.318;6.202;2023-03-03T13:53:52;20.80;;;9.50;;
3280;SDS011;1652;51.318;6.202;2023-03-03T14:16:14;22.40;;;10.60;;
3280;SDS011;1652;51.318;6.202;2023-03-03T14:18:38;19.77;;;10.80;;
3280;SDS011;1652;51.318;6.202;2023-03-03T14:21:38;18.73;;;9.80;;
3280;SDS011;1652;51.318;6.202;2023-03-03T14:26:48;37.80;;;10.93;;
3280;SDS011;1652;51.318;6.202;2023-03-03T14:31:53;18.20;;;9.77;;
3280;SDS011;1652;51.318;6.202;2023-03-03T14:36:49;15.77;;;9.50;;
3280;SDS011;1652;51.318;6.202;2023-03-03T14:42:14;25.10;;;10.63;;
3280;SDS011;1652;51.318;6.202;2023-03-03T14:44:59;18.10;;;9.97;;
3280;SDS011;1652;51.318;6.202;2023-03-03T14:47:29;19.33;;;10.83;;
3280;SDS011;1652;51.318;6.202;2023-03-03T14:50:57;20.97;;;10.40;;
3280;SDS011;1652;51.318;6.202;2023-03-03T14:53:11;19.03;;;10.70;;
3280;SDS011;1652;51.318;6.202;2023-03-03T14:55:43;18.30;;;9.57;;
3280;SDS011;1652;51.318;6.202;2023-03-03T14:58:31;17.80;;;8.80;;
3280;SDS011;1652;51.318;6.202;2023-03-03T15:01:55;20.00;;;10.00;;
3280;SDS011;1652;51.318;6.202;2023-03-03T15:04:00;17.90;;;10.50;;
3280;SDS011;1652;51.318;6.202;2023-03-03T15:06:30;21.30;;;10.63;;
3280;SDS011;1652;51.318;6.202;2023-03-03T15:11:52;18.37;;;10.07;;
3280;SDS011;1652;51.318;6.202;2023-03-03T15:18:08;17.17;;;9.30;;
3280;SDS011;1652;51.318;6.202;2023-03-03T15:20:07;20.03;;;9.37;;
3280;SDS011;1652;51.318;6.202;2023-03-03T15:27:53;19.83;;;9.63;;
3280;SDS011;1652;51.318;6.202;2023-03-03T15:30:47;23.90;;;9.43;;
3280;SDS011;1652;51.318;6.202;2023-03-03T15:41:24;20.73;;;11.27;;
3280;SDS011;1652;51.318;6.202;2023-03-03T15:44:05;16.20;;;9.70;;
3280;SDS011;1652;51.318;6.202;2023-03-03T15:46:53;19.40;;;10.43;;
3280;SDS011;1652;51.318;6.202;2023-03-03T15:52:18;23.20;;;11.87;;
3280;SDS011;1652;51.318;6.202;2023-03-03T15:58:10;18.80;;;10.50;;
3280;SDS011;1652;51.318;6.202;2023-03-03T16:03:40;21.33;;;10.73;;
3280;SDS011;1652;51.318;6.202;2023-03-03T16:06:17;19.17;;;10.60;;
3280;SDS011;1652;51.318;6.202;2023-03-03T16:11:41;16.70;;;10.87;;
3280;SDS011;1652;51.318;6.202;2023-03-03T16:19:45;22.80;;;11.07;;
3280;SDS011;1652;51.318;6.202;2023-03-03T16:22:35;17.73;;;10.53;;
3280;SDS011;1652;51.318;6.202;2023-03-03T16:30:33;16.23;;;9.40;;
3280;SDS011;1652;51.318;6.202;2023-03-03T16:36:24;17.33;;;10.53;;
3280;SDS011;1652;51.318;6.202;2023-03-03T16:55:54;14.87;;;9.80;;
3280;SDS011;1652;51.318;6.202;2023-03-03T16:58:48;15.20;;;9.33;;
3280;SDS011;1652;51.318;6.202;2023-03-03T17:07:12;16.20;;;8.97;;
3280;SDS011;1652;51.318;6.202;2023-03-03T17:15:06;22.67;;;10.30;;
3280;SDS011;1652;51.318;6.202;2023-03-03T17:17:43;18.70;;;10.70;;
3280;SDS011;1652;51.318;6.202;2023-03-03T17:25:49;14.00;;;9.30;;
3280;SDS011;1652;51.318;6.202;2023-03-03T17:29:02;20.93;;;11.80;;
3280;SDS011;1652;51.318;6.202;2023-03-03T17:34:22;19.73;;;11.77;;
3280;SDS011;1652;51.318;6.202;2023-03-03T17:39:48;41.23;;;12.20;;
3280;SDS011;1652;51.318;6.202;2023-03-03T17:45:26;20.77;;;11.30;;
3280;SDS011;1652;51.318;6.202;2023-03-03T17:50:31;25.13;;;11.37;;
3280;SDS011;1652;51.318;6.202;2023-03-03T17:59:13;20.10;;;12.07;;
3280;SDS011;1652;51.318;6.202;2023-03-03T18:13:32;30.77;;;13.03;;
3280;SDS011;1652;51.318;6.202;2023-03-03T18:18:59;28.03;;;15.87;;
3280;SDS011;1652;51.318;6.202;2023-03-03T18:21:50;22.23;;;14.83;;
3280;SDS011;1652;51.318;6.202;2023-03-03T18:26:51;41.27;;;20.83;;
3280;SDS011;1652;51.318;6.202;2023-03-03T18:29:24;60.70;;;28.17;;
3280;SDS011;1652;51.318;6.202;2023-03-03T18:34:33;55.90;;;25.47;;
3280;SDS011;1652;51.318;6.202;2023-03-03T18:37:10;38.17;;;20.40;;
3280;SDS011;1652;51.318;6.202;2023-03-03T18:42:45;43.10;;;19.47;;
3280;SDS011;1652;51.318;6.202;2023-03-03T18:48:05;27.00;;;15.63;;
3280;SDS011;1652;51.318;6.202;2023-03-03T18:53:11;35.00;;;16.53;;
3280;SDS011;1652;51.318;6.202;2023-03-03T18:55:43;31.80;;;15.80;;
3280;SDS011;1652;51.318;6.202;2023-03-03T19:00:46;28.70;;;16.20;;
3280;SDS011;1652;51.318;6.202;2023-03-03T19:06:00;30.13;;;16.80;;
3280;SDS011;1652;51.318;6.202;2023-03-03T19:08:42;26.93;;;16.63;;
3280;SDS011;1652;51.318;6.202;2023-03-03T19:16:54;28.60;;;16.67;;
3280;SDS011;1652;51.318;6.202;2023-03-03T19:19:23;33.33;;;19.07;;
3280;SDS011;1652;51.318;6.202;2023-03-03T19:27:41;33.90;;;16.53;;
3280;SDS011;1652;51.318;6.202;2023-03-03T19:33:06;28.43;;;15.80;;
3280;SDS011;1652;51.318;6.202;2023-03-03T19:35:57;25.17;;;15.87;;
3280;SDS011;1652;51.318;6.202;2023-03-03T19:38:36;31.87;;;16.97;;
3280;SDS011;1652;51.318;6.202;2023-03-03T19:43:44;27.90;;;15.67;;
3280;SDS011;1652;51.318;6.202;2023-03-03T19:49:39;24.60;;;14.30;;
3280;SDS011;1652;51.318;6.202;2023-03-03T19:52:21;28.67;;;16.50;;
3280;SDS011;1652;51.318;6.202;2023-03-03T19:58:15;30.70;;;15.83;;
3280;SDS011;1652;51.318;6.202;2023-03-03T20:06:35;22.27;;;13.13;;
3280;SDS011;1652;51.318;6.202;2023-03-03T20:09:18;21.70;;;13.70;;
3280;SDS011;1652;51.318;6.202;2023-03-03T20:11:50;22.47;;;14.10;;
3280;SDS011;1652;51.318;6.202;2023-03-03T20:16:56;30.60;;;13.93;;
3280;SDS011;1652;51.318;6.202;2023-03-03T20:33:37;24.77;;;14.20;;
3280;SDS011;1652;51.318;6.202;2023-03-03T20:36:44;29.20;;;16.20;;
3280;SDS011;1652;51.318;6.202;2023-03-03T20:42:34;25.97;;;14.33;;
3280;SDS011;1652;51.318;6.202;2023-03-03T20:53:27;23.77;;;12.80;;
3280;SDS011;1652;51.318;6.202;2023-03-03T20:56:04;28.93;;;13.77;;
3280;SDS011;1652;51.318;6.202;2023-03-03T20:58:48;22.87;;;13.40;;
3280;SDS011;1652;51.318;6.202;2023-03-03T21:04:18;20.80;;;12.27;;
3280;SDS011;1652;51.318;6.202;2023-03-03T21:06:53;21.70;;;12.33;;
3280;SDS011;1652;51.318;6.202;2023-03-03T21:09:33;23.17;;;12.40;;
3280;SDS011;1652;51.318;6.202;2023-03-03T21:12:25;15.50;;;10.27;;
3280;SDS011;1652;51.318;6.202;2023-03-03T21:14:59;22.20;;;11.20;;
3280;SDS011;1652;51.318;6.202;2023-03-03T21:17:32;23.67;;;11.70;;
3280;SDS011;1652;51.318;6.202;2023-03-03T21:20:16;18.20;;;10.97;;
3280;SDS011;1652;51.318;6.202;2023-03-03T21:22:48;18.67;;;10.20;;
3280;SDS011;1652;51.318;6.202;2023-03-03T21:31:01;5.50;;;5.00;;
3280;SDS011;1652;51.318;6.202;2023-03-03T21:36:20;2.67;;;2.53;;
3280;SDS011;1652;51.318;6.202;2023-03-03T21:38:57;3.20;;;2.83;;
3280;SDS011;1652;51.318;6.202;2023-03-03T21:41:24;2.20;;;2.10;;
3280;SDS011;1652;51.318;6.202;2023-03-03T21:43:51;4.50;;;2.30;;
3280;SDS011;1652;51.318;6.202;2023-03-03T21:46:19;2.30;;;2.20;;
3280;SDS011;1652;51.318;6.202;2023-03-03T21:48:49;3.50;;;2.37;;
3280;SDS011;1652;51.318;6.202;2023-03-03T21:51:16;6.87;;;2.53;;
3280;SDS011;1652;51.318;6.202;2023-03-03T21:53:45;2.40;;;2.30;;
3280;SDS011;1652;51.318;6.202;2023-03-03T21:56:12;2.97;;;2.47;;
3280;SDS011;1652;51.318;6.202;2023-03-03T21:58:40;3.20;;;3.00;;
3280;SDS011;1652;51.318;6.202;2023-03-03T22:01:08;2.00;;;1.80;;
3280;SDS011;1652;51.318;6.202;2023-03-03T22:03:34;6.70;;;2.37;;
3280;SDS011;1652;51.318;6.202;2023-03-03T22:06:01;3.00;;;2.80;;
3280;SDS011;1652;51.318;6.202;2023-03-03T22:08:28;2.80;;;2.60;;
3280;SDS011;1652;51.318;6.202;2023-03-03T22:10:55;5.00;;;2.53;;
3280;SDS011;1652;51.318;6.202;2023-03-03T22:13:23;5.80;;;2.40;;
3280;SDS011;1652;51.318;6.202;2023-03-03T22:15:51;4.50;;;2.50;;